Información del aeropuerto GCLA

Información de pista
Pista 01 Longitud 7218 ft Anchura 148 ft
Elevación 103 ft Umbral 0 ft Rumbo 359
Pista 19 Longitud 7218 ft Anchura 148 ft
Elevación 65 ft Umbral 0 ft Rumbo 179
Frecuencias del aeropuerto
Tipo APP Nombre CANARIAS A Frecuencia 126.1 MHZ
Tipo ATIS Nombre INFO Frecuencia 118.6 MHZ
Tipo GND Nombre GND Frecuencia 121.8 MHZ
Tipo TWR Nombre TWR Frecuencia 118.9 MHZ
Radioayudas del aeropuerto
Tipo DME Nombre La Palma Frecuencia 112400 KHZ
Tipo NDB Nombre La Palma Frecuencia 389 KHZ
Información meteorológica del aeropuerto y NOTAM
ADDS - METARS form results

(1658 UTC 29 November 2021)
Data provider http://aviationweather.gov/metar/data/
 
METAR text: GCLA 291647Z 03011KT 360V080 9999 SCT028 BKN045 19/15 Q1025 RERA
Conditions at: GCLA (LA PALMA AIRPORT, ES) observed 1647 UTC 29 November 2021
Temperature: 19.0°C (66°F)
Dewpoint: 15.0°C (59°F) [RH = 78%]
Pressure (altimeter): 30.27 inches Hg (1025.0 mb)
Winds: from the NNE (30 degrees) at 13 MPH (11 knots; 5.7 m/s)
Visibility: 6 or more miles (10+ km)
Ceiling: 4500 feet AGL
Clouds: scattered clouds at 2800 feet AGL
broken clouds at 4500 feet AGL
Weather: no significant weather observed at this time

METAR text: GCLA 291630Z 05010KT 010V100 9000 4000S RA SCT025 BKN034 18/15 Q1026
Conditions at: GCLA (LA PALMA AIRPORT, ES) observed 1630 UTC 29 November 2021
Temperature: 18.0°C (64°F)
Dewpoint: 15.0°C (59°F) [RH = 83%]
Pressure (altimeter): 30.30 inches Hg (1026.0 mb)
Winds: from the NE (50 degrees) at 12 MPH (10 knots; 5.1 m/s)
Visibility: 6 miles ( 9 km)
Ceiling: 3400 feet AGL
Clouds: scattered clouds at 2500 feet AGL
broken clouds at 3400 feet AGL
Weather: RA  (moderate rain)

METAR text: GCLA 291600Z 35014KT 9999 SCT034 BKN050 19/14 Q1026
Conditions at: GCLA (LA PALMA AIRPORT, ES) observed 1600 UTC 29 November 2021
Temperature: 19.0°C (66°F)
Dewpoint: 14.0°C (57°F) [RH = 73%]
Pressure (altimeter): 30.30 inches Hg (1026.0 mb)
Winds: from the N (350 degrees) at 16 MPH (14 knots; 7.2 m/s)
Visibility: 6 or more miles (10+ km)
Ceiling: 5000 feet AGL
Clouds: scattered clouds at 3400 feet AGL
broken clouds at 5000 feet AGL
Weather: no significant weather observed at this time

Forecast for: GCLA (LA PALMA AIRPORT, ES)
Text: TAF GCLA 291400Z 2915/3015 02015KT 9999 BKN035 TX21/3014Z TN17/3006Z
Forecast period: 1500 UTC 29 November 2021 to 1500 UTC 30 November 2021
Forecast type: FROM: standard forecast or significant change
Winds: from the NNE (20 degrees) at 17 MPH (15 knots; 7.7 m/s)
Visibility: 6 or more miles (10+ km)
Ceiling: 3500 feet AGL
Clouds: broken clouds at 3500 feet AGL
Weather: no significant weather forecast for this period
Text: PROB40
Forecast period: 1500 UTC 29 November 2021 to 0300 UTC 30 November 2021
Forecast type: TEMPORARY: The following changes expected for less than half the time period
Winds: from the NNE (20 degrees) at 17 MPH (15 knots; 7.7 m/s)
gusting to 29 MPH (25 knots; 12.9 m/s)
Visibility: missing
Ceiling: unknown
Clouds: missing
Weather: no significant weather forecast for this period
Text: TEMPO 2915/3003 02015G25KT
Forecast period: 1500 UTC 29 November 2021 to 1500 UTC 30 November 2021
Forecast type: TEMPORARY: The following changes expected for less than half the time period
Visibility: 2.80 miles (4.51 km)
Ceiling: unknown
Clouds: missing
Weather: DZ RA  (moderate drizzle, moderate rain)